sensor_id;sensor_type;location;lat;lon;timestamp;pressure;altitude;pressure_sealevel;temperature;humidity
5988;BME280;3021;51.000;6.980;2023-11-19T00:00:21;67482.03;;;10.63;100.00
5988;BME280;3021;51.000;6.980;2023-11-19T00:02:46;67489.97;;;10.68;100.00
5988;BME280;3021;51.000;6.980;2023-11-19T00:05:13;67494.75;;;10.75;100.00
5988;BME280;3021;51.000;6.980;2023-11-19T00:07:39;67494.00;;;10.71;100.00
5988;BME280;3021;51.000;6.980;2023-11-19T00:10:09;67494.75;;;10.75;100.00
5988;BME280;3021;51.000;6.980;2023-11-19T00:12:39;67499.94;;;10.79;100.00
5988;BME280;3021;51.000;6.980;2023-11-19T00:15:05;67506.16;;;10.82;100.00
5988;BME280;3021;51.000;6.980;2023-11-19T00:17:32;67501.84;;;10.83;100.00
5988;BME280;3021;51.000;6.980;2023-11-19T00:19:57;67513.69;;;10.89;100.00
5988;BME280;3021;51.000;6.980;2023-11-19T00:22:23;67522.34;;;10.97;100.00
5988;BME280;3021;51.000;6.980;2023-11-19T00:24:48;67514.41;;;10.92;100.00
5988;BME280;3021;51.000;6.980;2023-11-19T00:27:13;67511.50;;;10.89;100.00
5988;BME280;3021;51.000;6.980;2023-11-19T00:29:39;67512.06;;;10.90;100.00
5988;BME280;3021;51.000;6.980;2023-11-19T00:32:04;67510.34;;;10.88;100.00
5988;BME280;3021;51.000;6.980;2023-11-19T00:34:30;67501.84;;;10.83;100.00
5988;BME280;3021;51.000;6.980;2023-11-19T00:36:56;67510.34;;;10.88;100.00
5988;BME280;3021;51.000;6.980;2023-11-19T00:39:21;67513.38;;;10.94;100.00
5988;BME280;3021;51.000;6.980;2023-11-19T00:41:47;67525.50;;;11.04;100.00
5988;BME280;3021;51.000;6.980;2023-11-19T00:44:13;67525.94;;;11.02;100.00
5988;BME280;3021;51.000;6.980;2023-11-19T00:46:38;67540.25;;;11.13;100.00
5988;BME280;3021;51.000;6.980;2023-11-19T00:49:04;67533.03;;;11.11;100.00
5988;BME280;3021;51.000;6.980;2023-11-19T00:51:29;67527.84;;;11.06;100.00
5988;BME280;3021;51.000;6.980;2023-11-19T00:53:57;67543.88;;;11.18;100.00
5988;BME280;3021;51.000;6.980;2023-11-19T00:56:22;67544.88;;;11.17;100.00
5988;BME280;3021;51.000;6.980;2023-11-19T00:58:48;67547.34;;;11.21;100.00
5988;BME280;3021;51.000;6.980;2023-11-19T01:01:13;67553.69;;;11.27;100.00
5988;BME280;3021;51.000;6.980;2023-11-19T01:03:38;67561.78;;;11.34;100.00
5988;BME280;3021;51.000;6.980;2023-11-19T01:06:04;67567.59;;;11.39;100.00
5988;BME280;3021;51.000;6.980;2023-11-19T01:08:30;67564.25;;;11.39;100.00
5988;BME280;3021;51.000;6.980;2023-11-19T01:10:55;67573.38;;;11.45;100.00
5988;BME280;3021;51.000;6.980;2023-11-19T01:13:20;67578.56;;;11.49;100.00
5988;BME280;3021;51.000;6.980;2023-11-19T01:15:46;67574.66;;;11.48;100.00
5988;BME280;3021;51.000;6.980;2023-11-19T01:18:12;67572.78;;;11.44;100.00
5988;BME280;3021;51.000;6.980;2023-11-19T01:20:38;67570.63;;;11.45;100.00
5988;BME280;3021;51.000;6.980;2023-11-19T01:23:03;67572.22;;;11.44;100.00
5988;BME280;3021;51.000;6.980;2023-11-19T01:25:29;67575.81;;;11.49;100.00
5988;BME280;3021;51.000;6.980;2023-11-19T01:27:54;67587.69;;;11.55;100.00
5988;BME280;3021;51.000;6.980;2023-11-19T01:30:22;67583.91;;;11.56;100.00
5988;BME280;3021;51.000;6.980;2023-11-19T01:32:47;67582.59;;;11.53;100.00
5988;BME280;3021;51.000;6.980;2023-11-19T01:35:13;67591.88;;;11.61;100.00
5988;BME280;3021;51.000;6.980;2023-11-19T01:37:38;67583.91;;;11.56;100.00
5988;BME280;3021;51.000;6.980;2023-11-19T01:40:04;67592.59;;;11.64;100.00
5988;BME280;3021;51.000;6.980;2023-11-19T01:42:36;67601.28;;;11.72;100.00
5988;BME280;3021;51.000;6.980;2023-11-19T01:45:01;67615.59;;;11.82;100.00
5988;BME280;3021;51.000;6.980;2023-11-19T01:47:28;67620.94;;;11.89;100.00
5988;BME280;3021;51.000;6.980;2023-11-19T01:49:56;67624.41;;;11.92;100.00
5988;BME280;3021;51.000;6.980;2023-11-19T01:52:22;67627.88;;;11.96;100.00
5988;BME280;3021;51.000;6.980;2023-11-19T01:54:49;67634.69;;;11.99;100.00
5988;BME280;3021;51.000;6.980;2023-11-19T01:57:15;67633.09;;;12.00;100.00
5988;BME280;3021;51.000;6.980;2023-11-19T01:59:40;67635.28;;;12.00;100.00
5988;BME280;3021;51.000;6.980;2023-11-19T02:02:07;67639.75;;;12.01;100.00
5988;BME280;3021;51.000;6.980;2023-11-19T02:04:32;67640.47;;;12.04;100.00
5988;BME280;3021;51.000;6.980;2023-11-19T02:06:59;67638.31;;;12.05;100.00
5988;BME280;3021;51.000;6.980;2023-11-19T02:09:25;67645.53;;;12.06;100.00
5988;BME280;3021;51.000;6.980;2023-11-19T02:11:50;67649.16;;;12.12;100.00
5988;BME280;3021;51.000;6.980;2023-11-19T02:14:17;67645.69;;;12.09;100.00
5988;BME280;3021;51.000;6.980;2023-11-19T02:16:43;67650.91;;;12.14;100.00
5988;BME280;3021;51.000;6.980;2023-11-19T02:19:08;67658.84;;;12.18;100.00
5988;BME280;3021;51.000;6.980;2023-11-19T02:21:35;67657.84;;;12.20;100.00
5988;BME280;3021;51.000;6.980;2023-11-19T02:24:05;67660.28;;;12.24;100.00
5988;BME280;3021;51.000;6.980;2023-11-19T02:26:39;67670.72;;;12.34;100.00
5988;BME280;3021;51.000;6.980;2023-11-19T02:29:05;67682.84;;;12.44;100.00
5988;BME280;3021;51.000;6.980;2023-11-19T02:31:31;67677.66;;;12.40;100.00
5988;BME280;3021;51.000;6.980;2023-11-19T02:33:57;67682.13;;;12.41;100.00
5988;BME280;3021;51.000;6.980;2023-11-19T02:36:22;67686.91;;;12.48;100.00
5988;BME280;3021;51.000;6.980;2023-11-19T02:38:47;67701.25;;;12.58;100.00
5988;BME280;3021;51.000;6.980;2023-11-19T02:41:13;67699.50;;;12.57;100.00
5988;BME280;3021;51.000;6.980;2023-11-19T02:43:39;67702.56;;;12.62;100.00
5988;BME280;3021;51.000;6.980;2023-11-19T02:46:05;67707.19;;;12.66;100.00
5988;BME280;3021;51.000;6.980;2023-11-19T02:48:34;67715.00;;;12.68;100.00
5988;BME280;3021;51.000;6.980;2023-11-19T02:51:03;67712.69;;;12.66;100.00
5988;BME280;3021;51.000;6.980;2023-11-19T02:53:30;67713.97;;;12.70;100.00
5988;BME280;3021;51.000;6.980;2023-11-19T02:55:56;67713.41;;;12.69;100.00
5988;BME280;3021;51.000;6.980;2023-11-19T02:58:27;67721.06;;;12.78;100.00
5988;BME280;3021;51.000;6.980;2023-11-19T03:00:54;67722.06;;;12.77;100.00
5988;BME280;3021;51.000;6.980;2023-11-19T03:03:25;67716.31;;;12.72;100.00
5988;BME280;3021;51.000;6.980;2023-11-19T03:05:56;67711.22;;;12.70;100.00
5988;BME280;3021;51.000;6.980;2023-11-19T03:08:21;67713.56;;;12.72;100.00
5988;BME280;3021;51.000;6.980;2023-11-19T03:10:47;67715.28;;;12.73;100.00
5988;BME280;3021;51.000;6.980;2023-11-19T03:13:13;67718.16;;;12.76;100.00
5988;BME280;3021;51.000;6.980;2023-11-19T03:15:44;67724.97;;;12.79;100.00
5988;BME280;3021;51.000;6.980;2023-11-19T03:18:10;67723.25;;;12.78;100.00
5988;BME280;3021;51.000;6.980;2023-11-19T03:20:35;67723.66;;;12.76;100.00
5988;BME280;3021;51.000;6.980;2023-11-19T03:23:00;67722.06;;;12.77;100.00
5988;BME280;3021;51.000;6.980;2023-11-19T03:25:27;67718.75;;;12.76;100.00
5988;BME280;3021;51.000;6.980;2023-11-19T03:27:58;67723.81;;;12.78;100.00
5988;BME280;3021;51.000;6.980;2023-11-19T03:30:24;67727.88;;;12.82;100.00
5988;BME280;3021;51.000;6.980;2023-11-19T03:32:50;67735.25;;;12.86;100.00
5988;BME280;3021;51.000;6.980;2023-11-19T03:35:15;67730.19;;;12.84;100.00
5988;BME280;3021;51.000;6.980;2023-11-19T03:37:40;67735.53;;;12.91;100.00
5988;BME280;3021;51.000;6.980;2023-11-19T03:40:06;67731.50;;;12.88;100.00
5988;BME280;3021;51.000;6.980;2023-11-19T03:42:31;67724.53;;;12.82;100.00
5988;BME280;3021;51.000;6.980;2023-11-19T03:44:57;67722.94;;;12.83;100.00
5988;BME280;3021;51.000;6.980;2023-11-19T03:47:23;67733.66;;;12.87;100.00
5988;BME280;3021;51.000;6.980;2023-11-19T03:49:49;67728.59;;;12.85;100.00
5988;BME280;3021;51.000;6.980;2023-11-19T03:52:14;67732.50;;;12.86;100.00
5988;BME280;3021;51.000;6.980;2023-11-19T03:54:39;67730.31;;;12.87;100.00
5988;BME280;3021;51.000;6.980;2023-11-19T03:57:05;67732.63;;;12.89;100.00
5988;BME280;3021;51.000;6.980;2023-11-19T03:59:30;67719.78;;;12.75;100.00
5988;BME280;3021;51.000;6.980;2023-11-19T04:01:56;67720.50;;;12.78;100.00
5988;BME280;3021;51.000;6.980;2023-11-19T04:04:25;67728.44;;;12.83;100.00
5988;BME280;3021;51.000;6.980;2023-11-19T04:06:51;67735.97;;;12.89;100.00
5988;BME280;3021;51.000;6.980;2023-11-19T04:09:16;67735.53;;;12.91;100.00
5988;BME280;3021;51.000;6.980;2023-11-19T04:11:41;67739.44;;;12.92;100.00
5988;BME280;3021;51.000;6.980;2023-11-19T04:14:07;67736.69;;;12.92;100.00
5988;BME280;3021;51.000;6.980;2023-11-19T04:16:32;67744.66;;;12.97;100.00
5988;BME280;3021;51.000;6.980;2023-11-19T04:18:57;67751.03;;;13.03;100.00
5988;BME280;3021;51.000;6.980;2023-11-19T04:21:22;67749.84;;;13.02;100.00
5988;BME280;3021;51.000;6.980;2023-11-19T04:23:49;67744.66;;;12.97;100.00
5988;BME280;3021;51.000;6.980;2023-11-19T04:26:14;67741.19;;;12.94;100.00
5988;BME280;3021;51.000;6.980;2023-11-19T04:28:40;67731.34;;;12.85;100.00
5988;BME280;3021;51.000;6.980;2023-11-19T04:31:06;67725.53;;;12.80;100.00
5988;BME280;3021;51.000;6.980;2023-11-19T04:33:31;67726.72;;;12.81;100.00
5988;BME280;3021;51.000;6.980;2023-11-19T04:35:56;67726.84;;;12.84;100.00
5988;BME280;3021;51.000;6.980;2023-11-19T04:38:22;67735.97;;;12.89;100.00
5988;BME280;3021;51.000;6.980;2023-11-19T04:40:47;67738.88;;;12.92;100.00
5988;BME280;3021;51.000;6.980;2023-11-19T04:43:13;67740.03;;;12.93;100.00
5988;BME280;3021;51.000;6.980;2023-11-19T04:45:38;67739.44;;;12.92;100.00
5988;BME280;3021;51.000;6.980;2023-11-19T04:48:05;67734.81;;;12.88;100.00
5988;BME280;3021;51.000;6.980;2023-11-19T04:50:30;67724.97;;;12.79;100.00
5988;BME280;3021;51.000;6.980;2023-11-19T04:52:55;67730.63;;;12.82;100.00
5988;BME280;3021;51.000;6.980;2023-11-19T04:55:21;67722.78;;;12.80;100.00
5988;BME280;3021;51.000;6.980;2023-11-19T04:57:46;67724.97;;;12.79;100.00
5988;BME280;3021;51.000;6.980;2023-11-19T05:00:13;67723.50;;;12.83;100.00
5988;BME280;3021;51.000;6.980;2023-11-19T05:02:38;67721.06;;;12.78;100.00
5988;BME280;3021;51.000;6.980;2023-11-19T05:05:04;67718.75;;;12.76;100.00
5988;BME280;3021;51.000;6.980;2023-11-19T05:07:30;67721.66;;;12.79;100.00
5988;BME280;3021;51.000;6.980;2023-11-19T05:09:55;67713.97;;;12.70;100.00
5988;BME280;3021;51.000;6.980;2023-11-19T05:12:21;67727.44;;;12.84;100.00
5988;BME280;3021;51.000;6.980;2023-11-19T05:14:46;67734.97;;;12.91;100.00
5988;BME280;3021;51.000;6.980;2023-11-19T05:17:15;67722.06;;;12.77;100.00
5988;BME280;3021;51.000;6.980;2023-11-19T05:19:40;67713.56;;;12.72;100.00
5988;BME280;3021;51.000;6.980;2023-11-19T05:22:06;67692.56;;;12.51;100.00
5988;BME280;3021;51.000;6.980;2023-11-19T05:24:31;67660.16;;;12.22;100.00
5988;BME280;3021;51.000;6.980;2023-11-19T05:26:57;67655.69;;;12.20;100.00
5988;BME280;3021;51.000;6.980;2023-11-19T05:29:23;67660.16;;;12.22;100.00
5988;BME280;3021;51.000;6.980;2023-11-19T05:31:48;67635.41;;;12.02;100.00
5988;BME280;3021;51.000;6.980;2023-11-19T05:34:13;67644.69;;;12.10;100.00
5988;BME280;3021;51.000;6.980;2023-11-19T05:36:40;67634.69;;;11.99;100.00
5988;BME280;3021;51.000;6.980;2023-11-19T05:39:05;67633.09;;;12.00;100.00
5988;BME280;3021;51.000;6.980;2023-11-19T05:41:31;67630.06;;;11.95;100.00
5988;BME280;3021;51.000;6.980;2023-11-19T05:43:56;67604.16;;;11.74;100.00
5988;BME280;3021;51.000;6.980;2023-11-19T05:46:21;67597.78;;;11.69;100.00
5988;BME280;3021;51.000;6.980;2023-11-19T05:48:47;67597.66;;;11.66;100.00
5988;BME280;3021;51.000;6.980;2023-11-19T05:51:13;67606.47;;;11.76;100.00
5988;BME280;3021;51.000;6.980;2023-11-19T05:53:40;67625.25;;;11.88;100.00
5988;BME280;3021;51.000;6.980;2023-11-19T05:56:05;67614.41;;;11.81;100.00
5988;BME280;3021;51.000;6.980;2023-11-19T05:58:34;67610.50;;;11.80;100.00
5988;BME280;3021;51.000;6.980;2023-11-19T06:01:01;67599.97;;;11.68;100.00
5988;BME280;3021;51.000;6.980;2023-11-19T06:03:27;67591.88;;;11.61;100.00
5988;BME280;3021;51.000;6.980;2023-11-19T06:05:53;67605.16;;;11.73;100.00
5988;BME280;3021;51.000;6.980;2023-11-19T06:08:19;67612.13;;;11.79;100.00
5988;BME280;3021;51.000;6.980;2023-11-19T06:10:46;67611.69;;;11.81;100.00
5988;BME280;3021;51.000;6.980;2023-11-19T06:13:14;67618.34;;;11.82;100.00
5988;BME280;3021;51.000;6.980;2023-11-19T06:15:43;67613.41;;;11.83;100.00
5988;BME280;3021;51.000;6.980;2023-11-19T06:18:09;67618.59;;;11.87;100.00
5988;BME280;3021;51.000;6.980;2023-11-19T06:20:36;67617.88;;;11.84;100.00
5988;BME280;3021;51.000;6.980;2023-11-19T06:23:02;67612.84;;;11.82;100.00
5988;BME280;3021;51.000;6.980;2023-11-19T06:25:27;67599.25;;;11.65;100.00
5988;BME280;3021;51.000;6.980;2023-11-19T06:27:53;67608.22;;;11.78;100.00
5988;BME280;3021;51.000;6.980;2023-11-19T06:30:19;67624.84;;;11.90;100.00
5988;BME280;3021;51.000;6.980;2023-11-19T06:32:45;67613.25;;;11.80;100.00
5988;BME280;3021;51.000;6.980;2023-11-19T06:35:10;67615.59;;;11.82;100.00
5988;BME280;3021;51.000;6.980;2023-11-19T06:37:38;67622.97;;;11.86;100.00
5988;BME280;3021;51.000;6.980;2023-11-19T06:40:04;67622.97;;;11.86;100.00
5988;BME280;3021;51.000;6.980;2023-11-19T06:42:30;67619.19;;;11.88;100.00
5988;BME280;3021;51.000;6.980;2023-11-19T06:44:56;67618.47;;;11.85;100.00
5988;BME280;3021;51.000;6.980;2023-11-19T06:47:25;67615.13;;;11.84;100.00
5988;BME280;3021;51.000;6.980;2023-11-19T06:49:50;67618.91;;;11.83;100.00
5988;BME280;3021;51.000;6.980;2023-11-19T06:52:16;67613.25;;;11.80;100.00
5988;BME280;3021;51.000;6.980;2023-11-19T06:54:41;67610.38;;;11.78;100.00
5988;BME280;3021;51.000;6.980;2023-11-19T06:57:07;67602.84;;;11.71;100.00
5988;BME280;3021;51.000;6.980;2023-11-19T06:59:34;67608.66;;;11.76;100.00
5988;BME280;3021;51.000;6.980;2023-11-19T07:01:59;67608.50;;;11.73;100.00
5988;BME280;3021;51.000;6.980;2023-11-19T07:04:25;67603.44;;;11.71;100.00
5988;BME280;3021;51.000;6.980;2023-11-19T07:06:50;67602.28;;;11.70;100.00
5988;BME280;3021;51.000;6.980;2023-11-19T07:09:17;67602.84;;;11.71;100.00
5988;BME280;3021;51.000;6.980;2023-11-19T07:11:43;67608.66;;;11.76;100.00
5988;BME280;3021;51.000;6.980;2023-11-19T07:14:10;67609.66;;;11.74;100.00
5988;BME280;3021;51.000;6.980;2023-11-19T07:16:37;67608.06;;;11.75;100.00
5988;BME280;3021;51.000;6.980;2023-11-19T07:19:03;67609.78;;;11.77;100.00
5988;BME280;3021;51.000;6.980;2023-11-19T07:21:28;67602.28;;;11.70;100.00
5988;BME280;3021;51.000;6.980;2023-11-19T07:23:57;67606.31;;;11.74;100.00
5988;BME280;3021;51.000;6.980;2023-11-19T07:26:22;67613.25;;;11.80;100.00
5988;BME280;3021;51.000;6.980;2023-11-19T07:28:51;67627.16;;;11.92;100.00
5988;BME280;3021;51.000;6.980;2023-11-19T07:31:17;67609.78;;;11.77;100.00
5988;BME280;3021;51.000;6.980;2023-11-19T07:33:46;67617.47;;;11.86;100.00
5988;BME280;3021;51.000;6.980;2023-11-19T07:36:13;67626.59;;;11.92;100.00
5988;BME280;3021;51.000;6.980;2023-11-19T07:38:38;67615.13;;;11.84;100.00
5988;BME280;3021;51.000;6.980;2023-11-19T07:41:05;67634.84;;;12.02;100.00
5988;BME280;3021;51.000;6.980;2023-11-19T07:43:30;67626.16;;;11.94;100.00
5988;BME280;3021;51.000;6.980;2023-11-19T07:45:55;67638.59;;;12.00;100.00
5988;BME280;3021;51.000;6.980;2023-11-19T07:48:21;67652.63;;;12.15;100.00
5988;BME280;3021;51.000;6.980;2023-11-19T07:50:52;67639.03;;;12.08;100.00
5988;BME280;3021;51.000;6.980;2023-11-19T07:53:18;67635.28;;;12.00;100.00
5988;BME280;3021;51.000;6.980;2023-11-19T07:55:43;67638.88;;;12.05;100.00
5988;BME280;3021;51.000;6.980;2023-11-19T07:58:10;67638.16;;;12.02;100.00
5988;BME280;3021;51.000;6.980;2023-11-19T08:00:35;67642.78;;;12.06;100.00
5988;BME280;3021;51.000;6.980;2023-11-19T08:03:08;67638.88;;;12.05;100.00
5988;BME280;3021;51.000;6.980;2023-11-19T08:05:33;67638.88;;;12.05;100.00
5988;BME280;3021;51.000;6.980;2023-11-19T08:07:59;67621.34;;;11.87;100.00
5988;BME280;3021;51.000;6.980;2023-11-19T08:10:24;67653.78;;;12.16;100.00
5988;BME280;3021;51.000;6.980;2023-11-19T08:12:49;67691.09;;;12.54;100.00
5988;BME280;3021;51.000;6.980;2023-11-19T08:15:15;67705.44;;;12.65;100.00
5988;BME280;3021;51.000;6.980;2023-11-19T08:17:43;67747.56;;;13.00;100.00
5988;BME280;3021;51.000;6.980;2023-11-19T08:20:09;67785.34;;;13.36;100.00
5988;BME280;3021;51.000;6.980;2023-11-19T08:22:38;67809.56;;;13.55;100.00
5988;BME280;3021;51.000;6.980;2023-11-19T08:25:07;67843.88;;;13.88;100.00
5988;BME280;3021;51.000;6.980;2023-11-19T08:27:33;67877.91;;;14.15;100.00
5988;BME280;3021;51.000;6.980;2023-11-19T08:29:58;67912.09;;;14.46;100.00
5988;BME280;3021;51.000;6.980;2023-11-19T08:32:25;67930.69;;;14.62;100.00
5988;BME280;3021;51.000;6.980;2023-11-19T08:34:51;67936.63;;;14.70;100.00
5988;BME280;3021;51.000;6.980;2023-11-19T08:37:16;67939.53;;;14.73;100.00
5988;BME280;3021;51.000;6.980;2023-11-19T08:39:46;67964.31;;;14.92;100.00
5988;BME280;3021;51.000;6.980;2023-11-19T08:42:11;67988.22;;;15.16;100.00
5988;BME280;3021;51.000;6.980;2023-11-19T08:44:37;67960.97;;;14.92;100.00
5988;BME280;3021;51.000;6.980;2023-11-19T08:47:02;67952.72;;;14.82;100.00
5988;BME280;3021;51.000;6.980;2023-11-19T08:49:28;67980.00;;;15.06;100.00
5988;BME280;3021;51.000;6.980;2023-11-19T08:51:53;67998.09;;;15.25;100.00
5988;BME280;3021;51.000;6.980;2023-11-19T08:54:18;68036.97;;;15.59;100.00
5988;BME280;3021;51.000;6.980;2023-11-19T08:56:45;68079.34;;;15.97;100.00
5988;BME280;3021;51.000;6.980;2023-11-19T08:59:10;68128.09;;;16.40;100.00
5988;BME280;3021;51.000;6.980;2023-11-19T09:01:36;68210.47;;;17.10;100.00
5988;BME280;3021;51.000;6.980;2023-11-19T09:04:01;68268.13;;;17.64;100.00
5988;BME280;3021;51.000;6.980;2023-11-19T09:06:26;68229.31;;;17.32;100.00
5988;BME280;3021;51.000;6.980;2023-11-19T09:08:52;68165.97;;;16.76;100.00
5988;BME280;3021;51.000;6.980;2023-11-19T09:11:18;68168.63;;;16.73;100.00
5988;BME280;3021;51.000;6.980;2023-11-19T09:13:43;68145.38;;;16.53;100.00
5988;BME280;3021;51.000;6.980;2023-11-19T09:16:12;68185.03;;;16.90;100.00
5988;BME280;3021;51.000;6.980;2023-11-19T09:18:37;68263.91;;;17.58;100.00
5988;BME280;3021;51.000;6.980;2023-11-19T09:21:02;68248.94;;;17.47;100.00
5988;BME280;3021;51.000;6.980;2023-11-19T09:23:28;68229.75;;;17.30;100.00
5988;BME280;3021;51.000;6.980;2023-11-19T09:25:55;68271.03;;;17.67;100.00
5988;BME280;3021;51.000;6.980;2023-11-19T09:28:21;68319.88;;;18.10;100.00
5988;BME280;3021;51.000;6.980;2023-11-19T09:30:46;68341.38;;;18.29;100.00
5988;BME280;3021;51.000;6.980;2023-11-19T09:33:12;68319.28;;;18.09;100.00
5988;BME280;3021;51.000;6.980;2023-11-19T09:35:37;68311.16;;;18.02;100.00
5988;BME280;3021;51.000;6.980;2023-11-19T09:38:02;68418.19;;;18.97;100.00
5988;BME280;3021;51.000;6.980;2023-11-19T09:40:30;68605.19;;;20.65;100.00
5988;BME280;3021;51.000;6.980;2023-11-19T09:42:56;68682.22;;;21.35;100.00
5988;BME280;3021;51.000;6.980;2023-11-19T09:45:25;68699.47;;;21.46;100.00
5988;BME280;3021;51.000;6.980;2023-11-19T09:47:53;68563.84;;;20.28;100.00
5988;BME280;3021;51.000;6.980;2023-11-19T09:50:20;68444.22;;;19.17;100.00
5988;BME280;3021;51.000;6.980;2023-11-19T09:52:48;68310.69;;;18.04;100.00
5988;BME280;3021;51.000;6.980;2023-11-19T09:55:14;68243.13;;;17.42;100.00
5988;BME280;3021;51.000;6.980;2023-11-19T09:57:40;68184.28;;;16.87;100.00
5988;BME280;3021;51.000;6.980;2023-11-19T10:00:07;68137.97;;;16.49;100.00
5988;BME280;3021;51.000;6.980;2023-11-19T10:02:34;68063.81;;;15.85;100.00
5988;BME280;3021;51.000;6.980;2023-11-19T10:05:11;68047.84;;;15.66;100.00
5988;BME280;3021;51.000;6.980;2023-11-19T10:07:38;68077.03;;;15.95;100.00
5988;BME280;3021;51.000;6.980;2023-11-19T10:10:04;68249.06;;;17.50;100.00
5988;BME280;3021;51.000;6.980;2023-11-19T10:12:30;68571.28;;;20.32;100.00
5988;BME280;3021;51.000;6.980;2023-11-19T10:14:57;68633.63;;;20.87;100.00
5988;BME280;3021;51.000;6.980;2023-11-19T10:17:29;68518.75;;;19.83;100.00
5988;BME280;3021;51.000;6.980;2023-11-19T10:19:57;68493.69;;;19.61;100.00
5988;BME280;3021;51.000;6.980;2023-11-19T10:22:23;68443.78;;;19.20;100.00
5988;BME280;3021;51.000;6.980;2023-11-19T10:24:50;68584.09;;;20.44;100.00
5988;BME280;3021;51.000;6.980;2023-11-19T10:27:15;68477.41;;;19.47;100.00
5988;BME280;3021;51.000;6.980;2023-11-19T10:29:44;68450.75;;;19.26;100.00
5988;BME280;3021;51.000;6.980;2023-11-19T10:32:12;68362.31;;;18.47;100.00
5988;BME280;3021;51.000;6.980;2023-11-19T10:34:37;68308.81;;;18.00;100.00
5988;BME280;3021;51.000;6.980;2023-11-19T10:37:04;68318.00;;;18.06;100.00
5988;BME280;3021;51.000;6.980;2023-11-19T10:39:54;68286.72;;;17.81;100.00
5988;BME280;3021;51.000;6.980;2023-11-19T10:42:20;68259.97;;;17.57;100.00
5988;BME280;3021;51.000;6.980;2023-11-19T10:44:46;68154.81;;;16.64;100.00
5988;BME280;3021;51.000;6.980;2023-11-19T10:47:11;68094.88;;;16.08;100.00
5988;BME280;3021;51.000;6.980;2023-11-19T10:49:38;68085.16;;;16.02;100.00
5988;BME280;3021;51.000;6.980;2023-11-19T10:52:05;68093.84;;;16.10;100.00
5988;BME280;3021;51.000;6.980;2023-11-19T10:54:30;68087.47;;;16.04;100.00
5988;BME280;3021;51.000;6.980;2023-11-19T10:57:01;68114.75;;;16.28;100.00
5988;BME280;3021;51.000;6.980;2023-11-19T10:59:30;68104.88;;;16.19;100.00
5988;BME280;3021;51.000;6.980;2023-11-19T11:01:57;68111.13;;;16.22;100.00
5988;BME280;3021;51.000;6.980;2023-11-19T11:04:25;68115.94;;;16.29;100.00
5988;BME280;3021;51.000;6.980;2023-11-19T11:06:54;68097.78;;;16.11;100.00
5988;BME280;3021;51.000;6.980;2023-11-19T11:09:21;68054.25;;;15.72;100.00
5988;BME280;3021;51.000;6.980;2023-11-19T11:11:49;68034.63;;;15.57;100.00
5988;BME280;3021;51.000;6.980;2023-11-19T11:14:16;68029.41;;;15.52;100.00
5988;BME280;3021;51.000;6.980;2023-11-19T11:16:43;68019.41;;;15.41;100.00
5988;BME280;3021;51.000;6.980;2023-11-19T11:19:10;67991.72;;;15.19;100.00
5988;BME280;3021;51.000;6.980;2023-11-19T11:21:39;67983.47;;;15.09;100.00
5988;BME280;3021;51.000;6.980;2023-11-19T11:29:48;68058.28;;;15.76;100.00
5988;BME280;3021;51.000;6.980;2023-11-19T11:37:55;68058.44;;;15.78;100.00
5988;BME280;3021;51.000;6.980;2023-11-19T11:40:24;67993.91;;;15.18;100.00
5988;BME280;3021;51.000;6.980;2023-11-19T11:42:51;68002.59;;;15.26;100.00
5988;BME280;3021;51.000;6.980;2023-11-19T11:45:18;67989.84;;;15.15;100.00
5988;BME280;3021;51.000;6.980;2023-11-19T11:50:19;68032.75;;;15.53;100.00
5988;BME280;3021;51.000;6.980;2023-11-19T11:55:37;68053.22;;;15.73;100.00
5988;BME280;3021;51.000;6.980;2023-11-19T11:58:06;68062.53;;;15.82;100.00
5988;BME280;3021;51.000;6.980;2023-11-19T12:00:39;68052.06;;;15.72;100.00
5988;BME280;3021;51.000;6.980;2023-11-19T12:03:06;68047.97;;;15.69;100.00
5988;BME280;3021;51.000;6.980;2023-11-19T12:05:54;68008.41;;;15.31;100.00
5988;BME280;3021;51.000;6.980;2023-11-19T12:08:25;68046.69;;;15.65;100.00
5988;BME280;3021;51.000;6.980;2023-11-19T12:10:51;68037.41;;;15.57;100.00
5988;BME280;3021;51.000;6.980;2023-11-19T12:13:18;68076.19;;;15.89;100.00
5988;BME280;3021;51.000;6.980;2023-11-19T12:18:23;68077.03;;;15.95;100.00
5988;BME280;3021;51.000;6.980;2023-11-19T12:20:49;68056.25;;;15.79;100.00
5988;BME280;3021;51.000;6.980;2023-11-19T12:23:14;68036.69;;;15.54;100.00
5988;BME280;3021;51.000;6.980;2023-11-19T12:25:40;68010.72;;;15.33;100.00
5988;BME280;3021;51.000;6.980;2023-11-19T12:28:11;68020.13;;;15.44;100.00
5988;BME280;3021;51.000;6.980;2023-11-19T12:30:37;68022.75;;;15.42;100.00
5988;BME280;3021;51.000;6.980;2023-11-19T12:33:08;68019.88;;;15.39;100.00
5988;BME280;3021;51.000;6.980;2023-11-19T12:35:41;68014.22;;;15.36;100.00
5988;BME280;3021;51.000;6.980;2023-11-19T12:38:07;68020.59;;;15.42;100.00
5988;BME280;3021;51.000;6.980;2023-11-19T12:40:32;68057.88;;;15.78;100.00
5988;BME280;3021;51.000;6.980;2023-11-19T12:42:58;68035.09;;;15.55;100.00
5988;BME280;3021;51.000;6.980;2023-11-19T12:45:34;68054.81;;;15.72;100.00
5988;BME280;3021;51.000;6.980;2023-11-19T12:48:07;68024.06;;;15.45;100.00
5988;BME280;3021;51.000;6.980;2023-11-19T12:50:52;68017.81;;;15.42;100.00
5988;BME280;3021;51.000;6.980;2023-11-19T12:53:18;68007.97;;;15.33;100.00
5988;BME280;3021;51.000;6.980;2023-11-19T12:55:44;68008.53;;;15.34;100.00
5988;BME280;3021;51.000;6.980;2023-11-19T12:58:10;68018.25;;;15.40;100.00
5988;BME280;3021;51.000;6.980;2023-11-19T13:00:35;67989.84;;;15.15;100.00
5988;BME280;3021;51.000;6.980;2023-11-19T13:03:00;67943.44;;;14.74;100.00
5988;BME280;3021;51.000;6.980;2023-11-19T13:05:30;67869.38;;;14.10;100.00
5988;BME280;3021;51.000;6.980;2023-11-19T13:08:08;67827.66;;;13.73;100.00
5988;BME280;3021;51.000;6.980;2023-11-19T13:13:15;67795.06;;;13.42;100.00
5988;BME280;3021;51.000;6.980;2023-11-19T13:15:40;67780.44;;;13.26;100.00
5988;BME280;3021;51.000;6.980;2023-11-19T13:18:05;67762.75;;;13.16;100.00
5988;BME280;3021;51.000;6.980;2023-11-19T13:20:32;67779.41;;;13.28;100.00
5988;BME280;3021;51.000;6.980;2023-11-19T13:22:59;67782.16;;;13.28;100.00
5988;BME280;3021;51.000;6.980;2023-11-19T13:25:26;67786.97;;;13.35;100.00
5988;BME280;3021;51.000;6.980;2023-11-19T13:27:52;67822.88;;;13.67;100.00